Time;durP1;ratioP1;P1;durP2;ratioP2;P2;SDS_P1;SDS_P2;PMS_P1;PMS_P2;Temp;Humidity;BMP_temperature;BMP_pressure;BME280_temperature;BME280_humidity;BME280_pressure;Samples;Min_cycle;Max_cycle;Signal;HPM_P1;HPM_P2
2021/05/05 00:01:54;;;;;;;10.43;5.50;;;15.60;88.50;;;;;;5015427;28;20421;-70
2021/05/05 00:04:20;;;;;;;10.75;5.13;;;15.60;88.50;;;;;;5015431;28;20038;-71
2021/05/05 00:06:47;;;;;;;8.60;5.35;;;15.60;88.50;;;;;;5033102;28;20109;-71
2021/05/05 00:09:13;;;;;;;8.90;6.65;;;15.60;87.90;;;;;;5033148;28;20034;-71
2021/05/05 00:11:41;;;;;;;10.30;6.03;;;15.60;87.60;;;;;;5033031;28;20029;-70
2021/05/05 00:14:08;;;;;;;9.40;5.70;;;15.70;87.50;;;;;;5033023;28;20080;-70
2021/05/05 00:16:34;;;;;;;8.70;5.72;;;15.70;87.50;;;;;;5015234;28;20021;-70
2021/05/05 00:19:00;;;;;;;13.68;6.28;;;15.80;87.70;;;;;;5033019;28;20040;-70
2021/05/05 00:21:26;;;;;;;15.02;6.00;;;15.80;87.70;;;;;;5033252;28;20088;-70
2021/05/05 00:23:52;;;;;;;12.15;6.15;;;15.70;88.10;;;;;;5032993;28;20029;-70
2021/05/05 00:26:18;;;;;;;12.77;5.75;;;15.70;88.30;;;;;;5032929;28;20035;-70
2021/05/05 00:28:44;;;;;;;13.25;6.43;;;15.60;88.40;;;;;;5032912;28;20029;-70
2021/05/05 00:31:10;;;;;;;13.07;6.60;;;15.60;89.40;;;;;;5032787;28;20056;-70
2021/05/05 00:33:36;;;;;;;12.43;6.15;;;15.50;89.70;;;;;;5032851;28;20056;-70
2021/05/05 00:36:02;;;;;;;7.95;5.55;;;15.40;89.50;;;;;;5031481;28;20044;-69
2021/05/05 00:38:28;;;;;;;10.07;6.03;;;15.40;89.70;;;;;;5032816;28;20033;-70
2021/05/05 00:40:54;;;;;;;8.40;5.82;;;15.30;89.60;;;;;;5032750;28;20028;-69
2021/05/05 00:43:19;;;;;;;8.30;5.95;;;15.30;89.90;;;;;;5032761;28;20026;-70
2021/05/05 00:45:45;;;;;;;9.90;6.45;;;15.20;90.00;;;;;;5032738;28;20018;-69
2021/05/05 00:48:14;;;;;;;9.75;6.35;;;15.20;89.90;;;;;;5032690;28;20378;-69
2021/05/05 00:50:40;;;;;;;15.20;6.10;;;15.20;90.00;;;;;;5032475;28;20029;-69
2021/05/05 00:53:07;;;;;;;8.23;5.47;;;15.20;90.10;;;;;;5032582;28;20030;-69
2021/05/05 00:55:32;;;;;;;11.25;5.97;;;15.20;90.10;;;;;;5032685;28;20029;-70
2021/05/05 00:57:58;;;;;;;12.43;6.53;;;15.20;90.60;;;;;;5035808;28;20141;-69
2021/05/05 01:00:25;;;;;;;15.60;6.35;;;15.10;91.50;;;;;;5036193;28;20132;-69
2021/05/05 01:02:51;;;;;;;13.98;6.93;;;15.00;91.50;;;;;;5035063;28;20029;-69
2021/05/05 01:05:18;;;;;;;11.43;6.60;;;14.90;91.60;;;;;;5036179;28;20478;-69
2021/05/05 01:07:44;;;;;;;11.95;6.60;;;14.80;91.60;;;;;;5036286;28;20083;-69
2021/05/05 01:10:12;;;;;;;16.63;6.50;;;14.80;92.00;;;;;;5018476;28;20037;-69
2021/05/05 01:12:38;;;;;;;10.20;6.43;;;14.70;92.10;;;;;;5036132;28;20059;-69
2021/05/05 01:15:05;;;;;;;11.48;6.72;;;14.60;92.30;;;;;;5035862;28;20423;-69
2021/05/05 01:17:33;;;;;;;8.15;6.53;;;14.60;92.80;;;;;;5035853;28;20105;-70
2021/05/05 01:19:59;;;;;;;11.05;6.53;;;14.40;93.00;;;;;;5036093;28;20072;-69
2021/05/05 01:22:25;;;;;;;7.72;5.65;;;14.40;93.20;;;;;;5036064;28;20067;-70
2021/05/05 01:24:51;;;;;;;8.05;5.80;;;14.40;93.40;;;;;;5036254;28;20067;-70
2021/05/05 01:27:17;;;;;;;9.20;6.43;;;14.30;92.90;;;;;;5035851;28;20458;-70
2021/05/05 01:29:47;;;;;;;9.20;5.88;;;14.40;92.90;;;;;;5035957;28;20071;-69
2021/05/05 01:32:13;;;;;;;7.97;5.88;;;14.40;92.80;;;;;;5035838;28;20038;-70
2021/05/05 01:34:39;;;;;;;11.10;6.07;;;14.40;92.90;;;;;;5018328;28;20035;-69
2021/05/05 01:37:06;;;;;;;9.80;6.03;;;14.30;92.80;;;;;;5035768;28;20021;-70
2021/05/05 01:39:32;;;;;;;9.82;5.95;;;14.30;93.10;;;;;;5017954;28;20466;-70
2021/05/05 01:41:58;;;;;;;10.60;5.72;;;14.30;93.50;;;;;;5035624;28;20037;-69
2021/05/05 01:44:33;;;;;;;14.27;6.25;;;14.30;93.80;;;;;;5017767;28;20032;-70
2021/05/05 01:47:00;;;;;;;12.82;6.15;;;14.20;94.00;;;;;;5035832;28;20025;-70
2021/05/05 01:49:27;;;;;;;7.78;5.75;;;14.10;93.70;;;;;;5035626;28;20026;-70
2021/05/05 01:51:55;;;;;;;8.30;6.10;;;14.10;93.60;;;;;;5017611;28;20546;-70
2021/05/05 01:54:23;;;;;;;7.95;5.65;;;14.10;93.50;;;;;;5035463;28;20033;-70
2021/05/05 01:56:49;;;;;;;12.93;6.53;;;14.10;93.50;;;;;;5034882;28;20022;-70
2021/05/05 01:59:15;;;;;;;9.25;5.93;;;14.00;93.50;;;;;;5035404;28;20116;-71
2021/05/05 02:01:41;;;;;;;8.60;5.70;;;14.00;93.10;;;;;;5017453;28;20045;-70
2021/05/05 02:04:07;;;;;;;11.93;6.53;;;14.10;92.80;;;;;;5035334;28;20033;-70
2021/05/05 02:06:33;;;;;;;10.48;6.20;;;14.10;92.80;;;;;;5035163;28;20033;-70
2021/05/05 02:09:00;;;;;;;16.60;7.20;;;14.10;92.90;;;;;;5034661;28;20382;-70
2021/05/05 02:11:27;;;;;;;17.88;8.10;;;14.10;92.90;;;;;;5017339;28;20123;-70
2021/05/05 02:13:53;;;;;;;11.82;6.93;;;14.00;93.00;;;;;;5035120;28;20025;-70
2021/05/05 02:16:19;;;;;;;12.23;6.68;;;14.00;92.90;;;;;;5017225;28;20025;-70
2021/05/05 02:18:45;;;;;;;9.25;6.05;;;13.90;92.70;;;;;;5017096;28;20417;-70
2021/05/05 02:21:12;;;;;;;9.35;6.68;;;13.90;92.70;;;;;;5035027;28;20030;-70
2021/05/05 02:23:38;;;;;;;10.50;6.25;;;13.90;92.90;;;;;;5034900;28;20033;-70
2021/05/05 02:26:04;;;;;;;6.60;5.40;;;13.80;93.00;;;;;;5034812;28;20040;-70
2021/05/05 02:28:31;;;;;;;11.90;6.00;;;13.80;93.10;;;;;;5035068;28;20024;-70
2021/05/05 02:30:58;;;;;;;8.80;5.70;;;13.80;93.10;;;;;;5016917;28;20438;-71
2021/05/05 02:33:25;;;;;;;8.48;5.72;;;13.80;92.50;;;;;;5034609;28;20069;-69
2021/05/05 02:35:51;;;;;;;10.77;5.95;;;13.70;92.40;;;;;;5034701;28;20083;-69
2021/05/05 02:38:18;;;;;;;9.43;5.85;;;13.70;92.70;;;;;;5034587;28;20033;-69
2021/05/05 02:40:45;;;;;;;8.60;5.57;;;;;;;;;;5034610;28;20057;-69
2021/05/05 02:43:11;;;;;;;10.25;6.03;;;;;;;;;;5016751;28;20030;-69
2021/05/05 02:45:37;;;;;;;13.52;6.85;;;;;;;;;;5034480;28;20029;-69
2021/05/05 02:48:04;;;;;;;13.35;6.75;;;;;;;;;;5016561;28;20021;-69
2021/05/05 02:50:30;;;;;;;18.48;7.78;;;;;;;;;;5016624;28;20466;-70
2021/05/05 02:52:56;;;;;;;15.40;7.47;;;;;;;;;;5034326;28;20030;-70
2021/05/05 02:55:23;;;;;;;9.32;6.53;;;;;;;;;;5034318;28;20040;-70
2021/05/05 02:57:49;;;;;;;10.95;7.10;;;13.50;93.30;;;;;;5016089;28;20389;-70
2021/05/05 03:00:15;;;;;;;10.68;6.43;;;13.40;93.40;;;;;;5033803;28;20382;-70
2021/05/05 03:02:41;;;;;;;8.57;6.38;;;13.40;93.00;;;;;;5034146;28;20037;-69
2021/05/05 03:05:08;;;;;;;52.05;7.93;;;13.40;93.40;;;;;;5034100;28;20037;-69
2021/05/05 03:07:34;;;;;;;69.95;9.07;;;13.40;93.10;;;;;;5016197;28;20463;-69
2021/05/05 03:10:00;;;;;;;10.63;6.03;;;13.40;92.70;;;;;;5033710;28;20422;-70
2021/05/05 03:12:26;;;;;;;57.80;9.32;;;13.40;92.60;;;;;;5033536;28;20077;-69
2021/05/05 03:14:52;;;;;;;11.45;6.72;;;13.50;92.30;;;;;;5033575;28;20056;-69
2021/05/05 03:17:18;;;;;;;12.63;6.10;;;13.50;92.40;;;;;;5033852;28;20462;-69
2021/05/05 03:19:44;;;;;;;15.65;6.57;;;13.40;92.10;;;;;;5033166;28;20029;-69
2021/05/05 03:22:10;;;;;;;21.17;6.18;;;13.40;91.80;;;;;;5016035;28;20485;-70
2021/05/05 03:24:36;;;;;;;19.58;7.25;;;13.40;93.00;;;;;;5015978;28;20552;-70
2021/05/05 03:27:01;;;;;;;10.40;6.25;;;13.40;93.10;;;;;;5033684;28;20029;-70
2021/05/05 03:29:27;;;;;;;15.57;7.30;;;13.30;93.40;;;;;;5033609;28;20411;-70
2021/05/05 03:31:53;;;;;;;20.13;7.07;;;13.30;92.80;;;;;;5015568;28;20530;-70
2021/05/05 03:34:19;;;;;;;15.80;6.85;;;13.20;92.90;;;;;;5015761;28;20029;-70
2021/05/05 03:36:46;;;;;;;11.18;6.35;;;13.20;93.00;;;;;;5033501;28;20034;-69
2021/05/05 03:39:12;;;;;;;14.20;6.60;;;13.20;93.10;;;;;;5033505;28;20036;-69
2021/05/05 03:41:38;;;;;;;12.38;6.47;;;13.20;92.90;;;;;;5033180;28;20021;-70
2021/05/05 03:44:06;;;;;;;36.10;8.10;;;13.30;92.50;;;;;;5033638;28;20486;-70
2021/05/05 03:46:32;;;;;;;42.38;7.68;;;13.30;92.90;;;;;;5033080;28;20444;-70
2021/05/05 03:48:58;;;;;;;11.68;6.65;;;13.30;93.50;;;;;;5033382;28;20030;-69
2021/05/05 03:51:24;;;;;;;12.90;6.43;;;13.20;94.10;;;;;;5033037;28;20421;-70
2021/05/05 03:53:50;;;;;;;11.23;7.10;;;13.20;93.50;;;;;;5015527;28;20076;-70
2021/05/05 03:56:16;;;;;;;20.65;8.00;;;13.20;93.20;;;;;;5015456;28;20029;-69
2021/05/05 03:58:42;;;;;;;23.98;8.02;;;13.20;93.40;;;;;;5032637;28;20092;-72
2021/05/05 04:01:08;;;;;;;14.77;6.75;;;13.10;93.80;;;;;;5031923;28;20447;-69
2021/05/05 04:03:33;;;;;;;15.70;7.65;;;13.20;93.60;;;;;;5033186;28;20559;-69
2021/05/05 04:05:59;;;;;;;434.08;31.42;;;13.20;93.20;;;;;;5033088;28;20021;-70
2021/05/05 04:08:25;;;;;;;27.15;8.02;;;13.10;93.00;;;;;;5015278;28;20378;-69
2021/05/05 04:10:51;;;;;;;14.13;8.30;;;13.20;92.30;;;;;;5033072;28;20026;-70
2021/05/05 04:13:17;;;;;;;19.70;8.55;;;13.20;91.80;;;;;;5032946;28;20037;-69
2021/05/05 04:15:43;;;;;;;13.73;7.72;;;13.20;92.00;;;;;;5033057;28;20470;-71
2021/05/05 04:18:09;;;;;;;12.57;7.00;;;13.20;91.80;;;;;;5032981;28;20113;-71
2021/05/05 04:20:35;;;;;;;10.25;6.18;;;13.20;91.80;;;;;;5048332;28;20116;-72
2021/05/05 04:23:01;;;;;;;31.98;7.90;;;13.10;91.10;;;;;;5032883;28;20043;-72
2021/05/05 04:25:27;;;;;;;21.02;7.07;;;13.20;91.70;;;;;;5015220;28;20036;-72
2021/05/05 04:27:53;;;;;;;14.88;6.38;;;13.20;91.80;;;;;;5015042;28;20478;-71
2021/05/05 04:30:19;;;;;;;13.43;6.50;;;13.30;91.70;;;;;;5033714;28;20470;-72
2021/05/05 04:32:47;;;;;;;10.13;5.20;;;13.30;91.40;;;;;;5036693;28;20037;-72
2021/05/05 04:35:14;;;;;;;11.32;5.65;;;13.30;91.30;;;;;;5036906;28;20025;-71
2021/05/05 04:37:40;;;;;;;9.20;5.38;;;13.40;91.40;;;;;;5052100;28;20040;-71
2021/05/05 04:40:07;;;;;;;10.70;6.18;;;13.60;91.00;;;;;;5052056;28;20061;-72
2021/05/05 04:42:32;;;;;;;11.68;5.95;;;13.70;90.70;;;;;;5018915;28;20124;-70
2021/05/05 04:45:03;;;;;;;11.85;6.53;;;13.70;90.30;;;;;;5036652;28;20442;-70
2021/05/05 04:47:30;;;;;;;15.27;6.50;;;13.80;90.80;;;;;;5036757;28;20025;-70
2021/05/05 04:49:56;;;;;;;15.52;6.78;;;13.90;91.00;;;;;;5036599;28;20060;-70
2021/05/05 04:52:21;;;;;;;15.82;6.78;;;14.00;91.60;;;;;;5036572;28;20065;-70
2021/05/05 04:54:47;;;;;;;16.88;7.30;;;14.00;92.10;;;;;;5036209;28;20026;-70
2021/05/05 04:57:13;;;;;;;18.40;6.78;;;14.10;92.10;;;;;;5018424;28;20088;-70
2021/05/05 04:59:39;;;;;;;23.60;7.00;;;14.20;92.50;;;;;;5036393;28;20053;-70
2021/05/05 05:02:05;;;;;;;28.45;7.85;;;14.30;92.00;;;;;;5036434;28;20429;-70
2021/05/05 05:04:32;;;;;;;19.27;6.55;;;14.40;92.10;;;;;;5036382;28;20026;-70
2021/05/05 05:06:58;;;;;;;14.10;7.40;;;14.50;91.80;;;;;;5036280;28;20083;-72
2021/05/05 05:09:24;;;;;;;16.40;6.65;;;14.60;91.50;;;;;;5036293;28;20436;-71
2021/05/05 05:11:50;;;;;;;124.35;12.68;;;14.70;91.10;;;;;;5018324;28;20056;-72
2021/05/05 05:14:16;;;;;;;20.95;8.20;;;14.80;90.60;;;;;;5036418;28;20037;-71
2021/05/05 05:16:41;;;;;;;23.27;9.02;;;14.90;90.10;;;;;;5018053;28;20064;-71
2021/05/05 05:19:07;;;;;;;15.77;8.63;;;15.10;88.50;;;;;;5036013;28;20035;-70
2021/05/05 05:21:33;;;;;;;16.35;8.25;;;15.20;87.70;;;;;;5018087;28;20393;-70
2021/05/05 05:23:59;;;;;;;26.10;8.07;;;15.40;89.20;;;;;;5035742;28;20036;-70
2021/05/05 05:26:25;;;;;;;15.40;8.30;;;15.50;89.20;;;;;;5035786;28;20029;-70
2021/05/05 05:28:51;;;;;;;12.07;6.45;;;15.80;85.90;;;;;;5050962;28;20030;-70
2021/05/05 05:31:16;;;;;;;20.48;7.55;;;16.00;83.30;;;;;;5035651;28;20123;-70
2021/05/05 05:33:43;;;;;;;107.18;14.82;;;16.20;83.60;;;;;;5035581;28;20437;-69
2021/05/05 05:36:09;;;;;;;117.25;12.40;;;16.40;84.70;;;;;;5035777;28;20067;-70
2021/05/05 05:38:35;;;;;;;34.60;8.27;;;16.50;82.30;;;;;;5035632;28;20053;-70
2021/05/05 05:41:01;;;;;;;13.18;7.25;;;16.70;84.60;;;;;;5017679;28;20112;-70
2021/05/05 05:43:26;;;;;;;11.65;6.90;;;16.80;84.80;;;;;;5017176;28;20491;-70
2021/05/05 05:45:52;;;;;;;26.73;8.48;;;16.80;82.40;;;;;;5035533;28;20021;-70
2021/05/05 05:48:18;;;;;;;16.85;6.68;;;16.80;82.50;;;;;;5035348;28;20021;-70
2021/05/05 05:50:44;;;;;;;63.80;7.80;;;16.80;81.80;;;;;;5035052;28;20057;-70
2021/05/05 05:53:10;;;;;;;58.80;8.32;;;16.70;83.60;;;;;;5035315;28;20092;-71
2021/05/05 05:55:36;;;;;;;20.50;5.38;;;16.70;82.40;;;;;;5035027;28;20031;-72
2021/05/05 05:58:03;;;;;;;24.00;6.60;;;16.80;83.10;;;;;;5047249;28;20494;-72
2021/05/05 06:00:29;;;;;;;13.10;6.07;;;16.90;83.00;;;;;;5015410;28;20477;-69
2021/05/05 06:02:55;;;;;;;10.25;4.57;;;17.00;84.00;;;;;;5015522;28;20120;-69
2021/05/05 06:05:21;;;;;;;14.85;4.03;;;17.10;80.60;;;;;;5015119;28;20022;-69
2021/05/05 06:07:47;;;;;;;9.63;4.05;;;17.20;80.80;;;;;;5015153;28;20405;-70
2021/05/05 06:10:13;;;;;;;10.45;3.90;;;17.40;80.20;;;;;;5015114;28;20026;-72
2021/05/05 06:12:39;;;;;;;9.57;4.40;;;17.50;80.20;;;;;;5015276;28;20087;-70
2021/05/05 06:15:06;;;;;;;11.80;4.50;;;17.50;77.40;;;;;;5026363;28;20483;-70
2021/05/05 06:17:32;;;;;;;9.15;4.30;;;17.40;77.50;;;;;;5033617;28;20030;-71
2021/05/05 06:19:58;;;;;;;18.40;5.03;;;17.40;76.60;;;;;;5033995;28;20029;-69
2021/05/05 06:22:24;;;;;;;10.75;4.30;;;17.50;77.80;;;;;;5034638;28;20108;-71
2021/05/05 06:24:50;;;;;;;11.20;4.20;;;17.50;78.00;;;;;;5030551;28;20036;-72
2021/05/05 06:27:15;;;;;;;48.15;6.93;;;17.60;78.20;;;;;;5034289;28;20026;-71
2021/05/05 06:29:41;;;;;;;21.25;6.60;;;17.70;78.20;;;;;;5033399;28;20022;-72
2021/05/05 06:32:07;;;;;;;9.32;4.55;;;17.80;80.40;;;;;;5033479;28;20471;-72
2021/05/05 06:34:33;;;;;;;24.40;7.18;;;17.90;77.20;;;;;;5034568;28;20082;-72
2021/05/05 06:37:00;;;;;;;13.40;5.43;;;18.00;81.70;;;;;;5033288;28;20458;-72
2021/05/05 06:39:26;;;;;;;18.65;5.47;;;18.10;77.20;;;;;;5032830;28;20029;-69
2021/05/05 06:41:52;;;;;;;41.30;7.97;;;;;;;;;;5033051;28;20029;-70
2021/05/05 06:44:18;;;;;;;19.70;5.30;;;;;;;;;;5034333;28;20056;-69
2021/05/05 06:46:45;;;;;;;7.35;3.97;;;;;;;;;;5033139;28;20029;-71
2021/05/05 06:49:12;;;;;;;8.85;4.35;;;18.60;69.50;;;;;;5032427;28;20032;-71
2021/05/05 06:51:39;;;;;;;16.75;6.25;;;18.50;69.90;;;;;;5032634;28;20037;-73
2021/05/05 06:57:27;;;;;;;43.72;7.18;;;18.80;69.40;;;;;;5038954;28;20436;-72
2021/05/05 06:59:53;;;;;;;55.20;6.38;;;18.90;70.20;;;;;;5036068;28;20029;-72
2021/05/05 07:02:18;;;;;;;4.85;2.58;;;19.00;66.10;;;;;;5054118;28;20036;-72
2021/05/05 07:04:45;;;;;;;12.80;3.78;;;19.10;62.20;;;;;;5053982;28;20032;-72
2021/05/05 07:07:11;;;;;;;18.17;3.80;;;19.20;64.60;;;;;;5054012;28;20511;-70
2021/05/05 07:09:37;;;;;;;9.00;2.75;;;19.30;72.40;;;;;;5035967;28;20028;-69
2021/05/05 07:12:03;;;;;;;10.70;3.70;;;19.50;65.70;;;;;;5053739;28;20043;-70
2021/05/05 07:14:29;;;;;;;5.13;2.42;;;19.50;68.10;;;;;;5053182;28;20087;-70
2021/05/05 07:16:54;;;;;;;7.57;2.83;;;19.70;64.10;;;;;;5053561;28;20453;-69
2021/05/05 07:19:21;;;;;;;7.93;3.30;;;19.80;63.10;;;;;;5035433;28;20381;-70
2021/05/05 07:21:46;;;;;;;8.88;2.83;;;19.90;59.40;;;;;;5053515;28;20549;-70
2021/05/05 07:24:12;;;;;;;9.10;3.45;;;20.00;64.10;;;;;;5035147;28;20115;-69
2021/05/05 07:26:38;;;;;;;7.65;2.33;;;20.10;63.60;;;;;;5035247;28;20073;-72
2021/05/05 07:29:05;;;;;;;7.53;3.50;;;20.20;58.10;;;;;;5035256;28;20032;-72
2021/05/05 07:31:31;;;;;;;8.80;3.03;;;20.30;60.10;;;;;;5053091;28;20025;-69
2021/05/05 07:33:58;;;;;;;8.45;3.17;;;20.40;59.40;;;;;;5053528;28;20170;-71
2021/05/05 07:36:27;;;;;;;42.47;4.65;;;20.50;65.00;;;;;;5053409;28;20025;-68
2021/05/05 07:47:15;;;;;;;21.17;3.92;;;21.10;58.50;;;;;;5053021;28;20109;-68
2021/05/05 07:49:48;;;;;;;6.15;2.80;;;21.10;58.60;;;;;;5053236;28;20067;-70
2021/05/05 07:52:16;;;;;;;6.60;2.58;;;21.20;54.40;;;;;;5053144;28;20484;-69
2021/05/05 07:54:42;;;;;;;11.25;3.30;;;21.30;56.20;;;;;;5053045;28;20021;-71
2021/05/05 07:57:08;;;;;;;9.95;3.03;;;21.40;57.80;;;;;;5034865;28;20025;-70
2021/05/05 07:59:34;;;;;;;44.60;5.30;;;21.50;56.30;;;;;;5053108;28;20025;-69
2021/05/05 08:02:00;;;;;;;10.23;2.10;;;21.70;56.80;;;;;;5053015;28;20112;-68
2021/05/05 08:04:26;;;;;;;6.05;2.50;;;21.80;53.30;;;;;;5052651;28;20083;-70
2021/05/05 08:06:52;;;;;;;4.85;2.15;;;21.90;52.60;;;;;;5034577;28;20063;-69
2021/05/05 08:09:17;;;;;;;10.18;2.53;;;21.90;51.50;;;;;;5052605;28;20036;-69
2021/05/05 08:11:44;;;;;;;8.25;1.80;;;22.10;51.80;;;;;;5034830;28;20466;-70
2021/05/05 08:14:10;;;;;;;4.13;2.13;;;22.20;50.30;;;;;;5052899;28;20032;-68
2021/05/05 08:16:36;;;;;;;4.93;2.15;;;22.40;54.70;;;;;;5034897;28;20029;-69
2021/05/05 08:19:02;;;;;;;6.30;2.65;;;22.10;54.30;;;;;;5052775;28;20485;-69
2021/05/05 08:21:29;;;;;;;49.88;4.68;;;21.80;53.50;;;;;;5052726;28;20453;-69
2021/05/05 08:23:56;;;;;;;4.45;2.20;;;21.60;53.20;;;;;;5068024;28;20048;-69
2021/05/05 08:26:22;;;;;;;7.70;1.80;;;21.60;57.70;;;;;;5052775;28;20025;-72
2021/05/05 08:28:48;;;;;;;4.60;1.98;;;21.40;50.90;;;;;;5052773;28;20025;-71
2021/05/05 08:31:14;;;;;;;19.77;2.63;;;21.20;52.20;;;;;;5052573;28;20036;-72
2021/05/05 08:33:40;;;;;;;32.03;3.22;;;21.10;55.70;;;;;;5052567;28;20037;-71
2021/05/05 08:36:06;;;;;;;6.00;2.17;;;21.00;56.70;;;;;;5052657;28;20134;-72
2021/05/05 08:38:32;;;;;;;5.30;1.80;;;21.80;57.10;;;;;;5067526;28;20029;-71
2021/05/05 08:40:57;;;;;;;1.98;1.55;;;21.90;53.30;;;;;;5052013;28;20035;-71
2021/05/05 08:43:24;;;;;;;15.63;1.95;;;22.30;50.10;;;;;;5034814;28;20029;-71
2021/05/05 08:45:55;;;;;;;2.85;1.88;;;22.40;49.30;;;;;;5052082;28;20026;-72
2021/05/05 08:48:21;;;;;;;7.35;2.10;;;22.60;49.30;;;;;;5052052;28;20470;-71
2021/05/05 08:50:47;;;;;;;32.67;2.80;;;22.80;51.40;;;;;;5052346;28;20082;-71
2021/05/05 08:53:13;;;;;;;4.05;1.90;;;23.20;52.70;;;;;;5052326;28;20037;-70
2021/05/05 08:55:40;;;;;;;6.55;2.78;;;23.60;52.00;;;;;;5034485;28;20162;-71
2021/05/05 08:58:06;;;;;;;2.33;1.70;;;23.80;50.00;;;;;;5051943;28;20056;-71
2021/05/05 09:00:35;;;;;;;7.82;2.17;;;24.00;49.50;;;;;;5051721;28;20029;-70
2021/05/05 09:03:02;;;;;;;2.45;1.70;;;23.70;48.20;;;;;;5034124;28;20420;-75
2021/05/05 09:05:49;;;;;;;4.78;1.48;;;23.70;49.80;;;;;;5034461;28;20376;-72
2021/05/05 09:08:16;;;;;;;2.10;1.38;;;24.00;49.80;;;;;;5034563;28;20091;-72
2021/05/05 09:11:00;;;;;;;5.13;1.50;;;24.00;45.60;;;;;;5034410;28;20457;-71
2021/05/05 09:13:47;;;;;;;15.48;2.20;;;24.20;48.40;;;;;;5052259;28;20037;-72
2021/05/05 09:16:15;;;;;;;122.93;6.80;;;24.50;47.10;;;;;;5052071;28;20033;-73
2021/05/05 09:18:54;;;;;;;9.68;1.10;;;24.70;48.70;;;;;;5055266;28;20159;-73
2021/05/05 09:21:36;;;;;;;4.32;1.40;;;24.60;45.90;;;;;;5038154;28;20032;-73
2021/05/05 09:24:18;;;;;;;5.97;2.58;;;;;;;;;;5056042;28;20021;-72
2021/05/05 09:26:46;;;;;;;5.43;2.10;;;;;;;;;;5055904;28;20499;-73
2021/05/05 09:29:12;;;;;;;35.40;3.72;;;;;;;;;;5055863;28;20116;-74
2021/05/05 09:31:40;;;;;;;5.47;1.15;;;;;;;;;;5055931;28;20067;-73
2021/05/05 09:34:10;;;;;;;6.35;1.52;;;;;;;;;;5038100;28;20152;-72
2021/05/05 09:36:41;;;;;;;1.77;1.10;;;;;;;;;;5055737;28;20033;-73
2021/05/05 09:39:09;;;;;;;2.05;1.25;;;;;;;;;;5055893;28;20053;-73
2021/05/05 09:41:36;;;;;;;4.55;2.22;;;;;;;;;;5055622;28;20367;-72
2021/05/05 09:44:02;;;;;;;11.50;1.63;;;;;;;;;;5055496;28;20024;-74
2021/05/05 09:46:42;;;;;;;5.47;1.60;;;;;;;;;;5037606;28;20032;-73
2021/05/05 09:49:24;;;;;;;2.40;1.30;;;;;;;;;;5055158;28;20470;-73
2021/05/05 09:51:55;;;;;;;2.33;1.55;;;;;;;;;;5054966;28;20466;-74
2021/05/05 09:54:29;;;;;;;3.00;1.40;;;;;;;;;;5055353;28;20024;-73
2021/05/05 09:57:11;;;;;;;4.15;1.20;;;;;;;;;;5036944;28;20025;-71
2021/05/05 09:59:53;;;;;;;4.60;1.15;;;;;;;;;;5037143;28;20027;-72
2021/05/05 10:02:20;;;;;;;2.25;1.23;;;;;;;;;;5055004;28;20036;-74
2021/05/05 10:05:04;;;;;;;2.20;1.48;;;;;;;;;;5054930;28;20104;-72
2021/05/05 10:07:48;;;;;;;5.15;1.27;;;;;;;;;;5054904;28;20028;-72
2021/05/05 10:10:15;;;;;;;4.63;1.38;;;;;;;;;;5036944;28;20032;-73
2021/05/05 10:12:42;;;;;;;3.08;1.15;;;;;;;;;;5054898;28;20071;-73
2021/05/05 10:15:08;;;;;;;5.95;1.48;;;;;;;;;;5055015;28;20134;-73
2021/05/05 10:17:35;;;;;;;1.77;1.10;;;;;;;;;;5054785;28;20029;-70
2021/05/05 10:20:02;;;;;;;3.13;1.13;;;;;;;;;;5054880;28;20428;-73
2021/05/05 10:22:29;;;;;;;11.40;1.42;;;;;;;;;;5054466;28;20143;-70
2021/05/05 10:24:56;;;;;;;2.75;1.35;;;;;;;;;;5054665;28;20025;-70
2021/05/05 10:27:22;;;;;;;4.50;1.20;;;;;;;;;;5054602;28;20470;-73
2021/05/05 10:29:50;;;;;;;3.60;1.75;;;;;;;;;;5054656;28;20081;-73
2021/05/05 10:32:20;;;;;;;6.47;1.55;;;;;;;;;;5054402;28;20033;-71
2021/05/05 10:34:49;;;;;;;2.00;1.45;;;;;;;;;;5036567;28;20032;-71
2021/05/05 10:37:15;;;;;;;1.75;1.10;;;;;;;;;;5054406;28;20405;-72
2021/05/05 10:39:42;;;;;;;3.63;1.40;;;;;;;;;;5036323;28;20021;-72
2021/05/05 10:42:16;;;;;;;1.77;1.05;;;;;;;;;;5053936;28;20378;-72
2021/05/05 10:44:44;;;;;;;4.55;1.48;;;;;;;;;;5054334;28;20024;-73
2021/05/05 10:47:12;;;;;;;5.88;1.40;;;;;;;;;;5054161;28;20017;-71
2021/05/05 10:49:57;;;;;;;23.65;2.10;;;;;;;;;;5054061;28;20095;-72
2021/05/05 10:52:23;;;;;;;1.92;1.35;;;;;;;;;;5051400;28;20102;-72
2021/05/05 10:54:51;;;;;;;25.42;2.03;;;;;;;;;;5034986;28;20028;-77
2021/05/05 10:57:18;;;;;;;10.23;1.58;;;;;;;;;;5053601;28;20475;-71
2021/05/05 11:00:06;;;;;;;2.10;0.95;;;;;;;;;;5053921;28;20025;-71
2021/05/05 11:02:45;;;;;;;4.07;1.48;;;35.60;31.70;;;;;;5054107;28;20032;-72
2021/05/05 11:05:13;;;;;;;23.83;2.30;;;35.80;31.70;;;;;;5052496;28;20121;-72
2021/05/05 11:07:59;;;;;;;2.97;1.20;;;35.30;30.00;;;;;;5053266;28;20047;-72
2021/05/05 11:10:31;;;;;;;7.70;1.58;;;;;;;;;;5035676;28;20119;-72
2021/05/05 11:13:01;;;;;;;6.13;1.48;;;;;;;;;;5053549;28;20040;-73
2021/05/05 11:15:50;;;;;;;2.33;1.38;;;;;;;;;;5053317;28;20051;-72
2021/05/05 11:20:52;;;;;;;4.63;1.17;;;;;;;;;;5053435;28;20037;-72
2021/05/05 11:23:38;;;;;;;2.63;1.20;;;;;;;;;;5053423;28;20048;-72
2021/05/05 11:26:23;;;;;;;2.83;1.40;;;;;;;;;;5035487;28;20032;-72
2021/05/05 11:28:57;;;;;;;6.93;1.15;;;;;;;;;;5035030;28;20055;-73
2021/05/05 11:31:42;;;;;;;3.75;2.35;;;;;;;;;;5053330;28;20028;-73
2021/05/05 11:34:08;;;;;;;4.00;1.70;;;;;;;;;;5053249;28;20036;-73
2021/05/05 11:36:35;;;;;;;3.83;1.50;;;;;;;;;;5035432;28;20071;-72
2021/05/05 11:39:01;;;;;;;2.80;1.63;;;;;;;;;;5053026;28;20104;-71
2021/05/05 11:41:29;;;;;;;23.73;2.95;;;;;;;;;;5052780;28;20039;-71
2021/05/05 11:43:56;;;;;;;4.85;1.40;;;;;;;;;;5053177;28;20028;-71
2021/05/05 11:46:23;;;;;;;35.63;3.13;;;;;;;;;;5053430;28;20420;-71
2021/05/05 11:48:49;;;;;;;2.10;1.38;;;;;;;;;;5053095;28;20021;-73
2021/05/05 11:51:16;;;;;;;3.25;1.17;;;;;;;;;;5035058;28;20024;-73
2021/05/05 11:53:43;;;;;;;2.88;1.13;;;;;;;;;;5052762;28;20166;-72
2021/05/05 11:56:16;;;;;;;4.95;1.13;;;;;;;;;;5034941;28;20029;-72
2021/05/05 11:58:43;;;;;;;1.90;1.15;;;;;;;;;;5052411;28;20053;-72
2021/05/05 12:01:09;;;;;;;3.28;1.20;;;;;;;;;;5052927;28;20025;-73
2021/05/05 12:03:35;;;;;;;3.00;1.48;;;;;;;;;;5052729;28;20550;-73
2021/05/05 12:06:01;;;;;;;5.57;1.55;;;;;;;;;;5052801;28;20369;-71
2021/05/05 12:08:29;;;;;;;3.03;1.25;;;;;;;;;;5034818;28;20029;-71
2021/05/05 12:11:03;;;;;;;2.33;1.63;;;;;;;;;;5052812;28;20057;-71
2021/05/05 12:13:29;;;;;;;3.03;1.30;;;;;;;;;;5052451;28;20036;-71
2021/05/05 12:18:29;;;;;;;5.70;1.10;;;;;;;;;;5052402;28;20065;-72
2021/05/05 12:21:01;;;;;;;49.15;4.43;;;;;;;;;;5052583;28;20021;-72
2021/05/05 12:23:34;;;;;;;1.58;1.23;;;;;;;;;;5034744;28;20187;-72
2021/05/05 12:26:00;;;;;;;3.75;1.13;;;;;;;;;;5052634;28;20063;-72
2021/05/05 12:28:26;;;;;;;1.33;1.10;;;;;;;;;;5052293;28;20099;-72
2021/05/05 12:30:54;;;;;;;4.05;1.20;;;;;;;;;;5052367;28;20029;-71
2021/05/05 12:33:24;;;;;;;3.15;1.25;;;;;;;;;;5034382;28;20386;-72
2021/05/05 12:35:50;;;;;;;3.00;1.35;;;;;;;;;;5052645;28;20033;-72
2021/05/05 12:38:18;;;;;;;4.22;1.42;;;;;;;;;;5052290;28;20028;-71
2021/05/05 12:40:45;;;;;;;3.40;1.20;;;37.80;30.60;;;;;;5052307;28;20040;-72
2021/05/05 12:43:20;;;;;;;1.63;1.00;;;37.80;31.20;;;;;;5034595;28;20036;-71
2021/05/05 12:45:47;;;;;;;7.53;1.10;;;37.40;30.60;;;;;;5052441;28;20075;-71
2021/05/05 12:48:20;;;;;;;1.92;1.17;;;;;;;;;;5052388;28;20104;-71
2021/05/05 12:50:46;;;;;;;3.38;2.20;;;37.00;29.30;;;;;;5052471;28;20072;-71
2021/05/05 12:53:11;;;;;;;1.33;1.23;;;36.30;45.20;;;;;;5036849;28;20037;-71
2021/05/05 12:55:40;;;;;;;3.08;1.10;;;;;;;;;;5055310;28;20102;-72
2021/05/05 12:58:08;;;;;;;2.63;1.00;;;;;;;;;;5037636;28;20064;-72
2021/05/05 13:00:36;;;;;;;4.32;0.95;;;;;;;;;;5056067;28;20021;-71
2021/05/05 13:03:05;;;;;;;2.80;0.90;;;;;;;;;;5056324;28;20116;-71
2021/05/05 13:05:31;;;;;;;2.67;1.10;;;;;;;;;;5037927;28;20021;-71
2021/05/05 13:08:08;;;;;;;7.30;1.60;;;;;;;;;;5056275;28;20029;-70
2021/05/05 13:10:42;;;;;;;1.05;0.85;;;;;;;;;;5056002;28;20018;-71
2021/05/05 13:13:12;;;;;;;1.25;1.15;;;;;;;;;;5056037;28;20037;-72
2021/05/05 13:15:59;;;;;;;1.60;0.97;;;;;;;;;;5056167;28;20025;-72
2021/05/05 13:32:35;;;;;;;3.95;1.20;;;;;;;;;;4974458;28;20074;-71
2021/05/05 13:35:41;;;;;;;5.75;1.10;;;;;;;;;;4958161;28;20026;-71
2021/05/05 13:38:14;;;;;;;2.53;1.40;;;;;;;;;;4900967;29;20036;-71
2021/05/05 13:40:45;;;;;;;4.60;1.20;;;;;;;;;;4901178;29;20032;-71
2021/05/05 13:43:17;;;;;;;;;;;;;;;;;;4917282;29;20564;-71
2021/05/05 13:45:47;;;;;;;6.07;1.05;;;;;;;;;;4917082;29;20307;-71
2021/05/05 13:48:25;;;;;;;5.40;1.23;;;;;;;;;;4916656;29;20044;-71
2021/05/05 13:50:52;;;;;;;3.53;1.27;;;;;;;;;;4900925;29;20437;-71